createdAt,value
2022-09-09T00:00:30.232Z,15.84
2022-09-09T00:01:30.237Z,15.69
2022-09-09T00:02:30.267Z,15.74
2022-09-09T00:03:30.318Z,15.78
2022-09-09T00:04:30.205Z,15.82
2022-09-09T00:05:30.183Z,15.69
2022-09-09T00:06:30.176Z,15.69
2022-09-09T00:07:30.159Z,15.68
2022-09-09T00:08:30.180Z,15.71
2022-09-09T00:09:30.141Z,15.75
2022-09-09T00:10:30.130Z,15.71
2022-09-09T00:11:31.611Z,15.65
2022-09-09T00:12:31.117Z,15.53
2022-09-09T00:13:30.100Z,15.53
2022-09-09T00:14:30.112Z,15.54
2022-09-09T00:15:30.134Z,15.54
2022-09-09T00:16:30.065Z,15.50
2022-09-09T00:17:30.069Z,15.47
2022-09-09T00:18:30.063Z,15.44
2022-09-09T00:19:30.082Z,15.49
2022-09-09T00:20:31.052Z,15.47
2022-09-09T00:21:30.026Z,15.51
2022-09-09T00:22:30.018Z,15.46
2022-09-09T00:23:30.000Z,15.39
2022-09-09T00:24:29.987Z,15.39
2022-09-09T00:25:29.995Z,15.51
2022-09-09T00:26:30.967Z,15.51
2022-09-09T00:27:29.964Z,15.44
2022-09-09T00:28:29.949Z,15.51
2022-09-09T00:29:29.939Z,15.44
2022-09-09T00:30:29.945Z,15.44
2022-09-09T00:31:30.092Z,15.43
2022-09-09T00:32:29.910Z,15.46
2022-09-09T00:33:29.898Z,15.47
2022-09-09T00:34:29.902Z,15.28
2022-09-09T00:35:29.895Z,15.31
2022-09-09T00:36:29.864Z,15.36
2022-09-09T00:37:29.871Z,15.29
2022-09-09T00:38:29.864Z,15.29
2022-09-09T00:39:29.925Z,15.27
2022-09-09T00:40:29.832Z,15.34
2022-09-09T00:41:29.821Z,15.27
2022-09-09T00:42:29.806Z,15.35
2022-09-09T00:43:29.833Z,15.31
2022-09-09T00:44:29.788Z,15.38
2022-09-09T00:45:29.782Z,15.36
2022-09-09T00:46:29.838Z,15.35
2022-09-09T00:47:29.781Z,15.41
2022-09-09T00:48:29.763Z,15.39
2022-09-09T00:49:29.747Z,15.38
2022-09-09T00:50:29.731Z,15.41
2022-09-09T00:51:29.756Z,15.47
2022-09-09T00:52:29.708Z,15.41
2022-09-09T00:53:29.701Z,15.39
2022-09-09T00:54:29.683Z,15.47
2022-09-09T00:55:29.679Z,15.41
2022-09-09T00:56:29.688Z,15.43
2022-09-09T00:57:29.655Z,15.53
2022-09-09T00:58:29.711Z,15.54
2022-09-09T00:59:29.635Z,15.65
2022-09-09T01:00:29.621Z,15.64
2022-09-09T01:01:29.685Z,15.60
2022-09-09T01:02:29.669Z,15.65
2022-09-09T01:03:29.593Z,15.64
2022-09-09T01:04:29.590Z,15.69
2022-09-09T01:05:29.576Z,15.69
2022-09-09T01:06:29.583Z,15.78
2022-09-09T01:07:29.556Z,15.78
2022-09-09T01:08:29.619Z,15.80
2022-09-09T01:09:29.537Z,15.84
2022-09-09T01:10:29.532Z,15.82
2022-09-09T01:11:29.514Z,15.82
2022-09-09T01:12:29.511Z,15.72
2022-09-09T01:13:29.514Z,15.87
2022-09-09T01:14:30.491Z,15.89
2022-09-09T01:15:29.483Z,15.86
2022-09-09T01:16:29.553Z,15.86
2022-09-09T01:17:29.463Z,15.86
2022-09-09T01:18:29.515Z,15.86
2022-09-09T01:19:29.477Z,15.82
2022-09-09T01:20:29.434Z,15.89
2022-09-09T01:21:29.425Z,15.78
2022-09-09T01:22:29.434Z,15.83
2022-09-09T01:23:29.409Z,15.74
2022-09-09T01:24:29.392Z,15.74
2022-09-09T01:25:29.381Z,15.75
2022-09-09T01:26:29.390Z,15.68
2022-09-09T01:27:29.378Z,15.68
2022-09-09T01:28:29.379Z,15.59
2022-09-09T01:29:29.369Z,15.56
2022-09-09T01:31:01.308Z,15.56
2022-09-09T01:31:29.315Z,15.47
2022-09-09T01:32:29.329Z,15.41
2022-09-09T01:33:29.321Z,15.53
2022-09-09T01:34:29.287Z,15.49
2022-09-09T01:35:29.271Z,15.44
2022-09-09T01:36:29.265Z,15.46
2022-09-09T01:37:29.268Z,15.43
2022-09-09T01:38:29.310Z,15.44
2022-09-09T01:39:29.372Z,15.50
2022-09-09T01:40:29.257Z,15.43
2022-09-09T01:41:29.228Z,15.46
2022-09-09T01:42:29.225Z,15.38
2022-09-09T01:43:29.208Z,15.51
2022-09-09T01:44:29.183Z,15.46
2022-09-09T01:45:29.183Z,15.41
2022-09-09T01:46:29.314Z,15.44
2022-09-09T01:47:29.178Z,15.39
2022-09-09T01:48:29.201Z,15.41
2022-09-09T01:49:29.138Z,15.49
2022-09-09T01:50:29.126Z,15.43
2022-09-09T01:51:29.119Z,15.36
2022-09-09T01:52:29.125Z,15.51
2022-09-09T01:53:29.087Z,15.43
2022-09-09T01:54:29.080Z,15.51
2022-09-09T01:55:29.071Z,15.43
2022-09-09T01:56:29.070Z,15.49
2022-09-09T01:57:29.076Z,15.44
2022-09-09T01:58:29.108Z,15.54
2022-09-09T01:59:29.032Z,15.57
2022-09-09T02:00:29.033Z,15.56
2022-09-09T02:01:29.030Z,15.60
2022-09-09T02:02:29.080Z,15.65
2022-09-09T02:03:28.999Z,15.64
2022-09-09T02:04:29.019Z,15.60
2022-09-09T02:05:29.018Z,15.60
2022-09-09T02:06:28.974Z,15.64
2022-09-09T02:07:28.974Z,15.59
2022-09-09T02:08:29.051Z,15.60
2022-09-09T02:09:28.937Z,15.64
2022-09-09T02:10:28.931Z,15.56
2022-09-09T02:11:28.911Z,15.54
2022-09-09T02:12:28.930Z,15.59
2022-09-09T02:13:28.914Z,15.53
2022-09-09T02:14:28.888Z,15.68
2022-09-09T02:15:28.896Z,15.78
2022-09-09T02:16:28.918Z,15.74
2022-09-09T02:17:28.849Z,15.72
2022-09-09T02:18:28.900Z,15.71
2022-09-09T02:19:28.832Z,15.68
2022-09-09T02:20:32.317Z,15.64
2022-09-09T02:21:28.811Z,15.72
2022-09-09T02:22:28.800Z,15.74
2022-09-09T02:23:28.812Z,15.75
2022-09-09T02:24:28.787Z,15.78
2022-09-09T02:25:28.780Z,15.76
2022-09-09T02:26:28.780Z,15.74
2022-09-09T02:27:28.756Z,15.74
2022-09-09T02:28:28.757Z,15.75
2022-09-09T02:29:28.718Z,15.72
2022-09-09T02:30:28.801Z,15.76
2022-09-09T02:31:28.721Z,15.89
2022-09-09T02:32:28.692Z,15.87
2022-09-09T02:33:28.700Z,15.83
2022-09-09T02:34:28.704Z,15.83
2022-09-09T02:35:28.678Z,15.92
2022-09-09T02:36:28.657Z,15.92
2022-09-09T02:37:28.668Z,15.90
2022-09-09T02:38:28.673Z,15.93
2022-09-09T02:39:28.625Z,15.89
2022-09-09T02:40:28.649Z,15.94
2022-09-09T02:41:28.603Z,15.89
2022-09-09T02:42:28.599Z,15.87
2022-09-09T02:43:28.592Z,15.96
2022-09-09T02:44:28.579Z,15.89
2022-09-09T02:45:28.654Z,15.97
2022-09-09T02:46:28.558Z,16.01
2022-09-09T02:47:28.554Z,15.96
2022-09-09T02:48:28.537Z,16.00
2022-09-09T02:49:28.526Z,15.94
2022-09-09T02:50:28.544Z,15.89
2022-09-09T02:51:28.520Z,15.89
2022-09-09T02:52:28.509Z,15.86
2022-09-09T02:53:28.481Z,15.87
2022-09-09T02:54:28.464Z,15.78
2022-09-09T02:55:29.484Z,15.87
2022-09-09T02:56:28.479Z,15.78
2022-09-09T02:57:28.456Z,15.84
2022-09-09T02:58:28.442Z,15.78
2022-09-09T02:59:28.429Z,15.87
2022-09-09T03:00:28.414Z,15.83
2022-09-09T03:01:28.458Z,15.80
2022-09-09T03:02:28.425Z,15.78
2022-09-09T03:03:28.380Z,15.87
2022-09-09T03:04:28.372Z,15.78
2022-09-09T03:05:28.363Z,15.90
2022-09-09T03:06:28.380Z,15.96
2022-09-09T03:07:28.360Z,15.96
2022-09-09T03:08:28.342Z,15.94
2022-09-09T03:09:28.347Z,15.90
2022-09-09T03:10:28.328Z,15.92
2022-09-09T03:11:28.320Z,15.97
2022-09-09T03:12:28.341Z,15.97
2022-09-09T03:13:28.289Z,15.87
2022-09-09T03:14:28.279Z,16.02
2022-09-09T03:15:28.258Z,16.01
2022-09-09T03:16:29.275Z,15.94
2022-09-09T03:17:28.281Z,16.00
2022-09-09T03:18:28.333Z,15.89
2022-09-09T03:19:29.233Z,15.94
2022-09-09T03:20:28.214Z,15.84
2022-09-09T03:21:28.198Z,15.87
2022-09-09T03:22:28.195Z,15.83
2022-09-09T03:23:28.204Z,15.82
2022-09-09T03:24:28.198Z,15.87
2022-09-09T03:25:28.173Z,15.87
2022-09-09T03:26:28.160Z,15.87
2022-09-09T03:27:28.153Z,15.74
2022-09-09T03:28:28.130Z,15.75
2022-09-09T03:29:28.148Z,15.68
2022-09-09T03:30:28.141Z,15.69
2022-09-09T03:31:28.179Z,15.64
2022-09-09T03:32:28.099Z,15.57
2022-09-09T03:33:28.084Z,15.64
2022-09-09T03:34:28.116Z,15.64
2022-09-09T03:35:28.064Z,15.47
2022-09-09T03:36:28.057Z,15.50
2022-09-09T03:37:28.048Z,15.53
2022-09-09T03:38:28.037Z,15.60
2022-09-09T03:39:28.043Z,15.54
2022-09-09T03:40:28.018Z,15.65
2022-09-09T03:41:28.019Z,15.67
2022-09-09T03:42:28.001Z,15.57
2022-09-09T03:43:28.004Z,15.65
2022-09-09T03:44:27.977Z,15.64
2022-09-09T03:45:27.984Z,15.62
2022-09-09T03:46:27.965Z,15.68
2022-09-09T03:47:27.941Z,15.60
2022-09-09T03:48:27.951Z,15.59
2022-09-09T03:49:27.935Z,15.60
2022-09-09T03:50:27.937Z,15.60
2022-09-09T03:51:27.923Z,15.65
2022-09-09T03:52:27.895Z,15.57
2022-09-09T03:53:27.879Z,15.57
2022-09-09T03:54:27.877Z,15.59
2022-09-09T03:55:28.882Z,15.49
2022-09-09T03:56:27.861Z,15.57
2022-09-09T03:57:27.861Z,15.56
2022-09-09T03:58:27.841Z,15.64
2022-09-09T03:59:27.823Z,15.60
2022-09-09T04:00:27.812Z,15.65
2022-09-09T04:01:27.841Z,15.56
2022-09-09T04:02:27.866Z,15.57
2022-09-09T04:03:28.493Z,15.64
2022-09-09T04:04:28.776Z,15.59
2022-09-09T04:05:27.764Z,15.64
2022-09-09T04:06:27.756Z,15.62
2022-09-09T04:07:27.733Z,15.54
2022-09-09T04:08:27.741Z,15.59
2022-09-09T04:09:27.719Z,15.54
2022-09-09T04:10:27.714Z,15.53
2022-09-09T04:11:27.707Z,15.47
2022-09-09T04:12:27.760Z,15.50
2022-09-09T04:13:27.670Z,15.39
2022-09-09T04:14:27.707Z,15.35
2022-09-09T04:15:27.684Z,15.38
2022-09-09T04:16:27.662Z,15.38
2022-09-09T04:17:27.660Z,15.31
2022-09-09T04:18:27.640Z,15.11
2022-09-09T04:19:27.625Z,15.13
2022-09-09T04:20:27.639Z,15.25
2022-09-09T04:21:27.613Z,15.14
2022-09-09T04:22:27.623Z,15.17
2022-09-09T04:23:27.584Z,15.27
2022-09-09T04:24:27.570Z,15.19
2022-09-09T04:25:28.565Z,15.28
2022-09-09T04:26:27.579Z,15.25
2022-09-09T04:27:27.570Z,15.29
2022-09-09T04:28:27.537Z,15.39
2022-09-09T04:29:27.570Z,15.32
2022-09-09T04:30:27.518Z,15.38
2022-09-09T04:31:27.549Z,15.36
2022-09-09T04:32:27.495Z,15.41
2022-09-09T04:33:27.489Z,15.38
2022-09-09T04:34:27.480Z,15.38
2022-09-09T04:35:27.478Z,15.36
2022-09-09T04:36:27.561Z,15.41
2022-09-09T04:37:27.463Z,15.46
2022-09-09T04:38:27.434Z,15.36
2022-09-09T04:39:27.431Z,15.46
2022-09-09T04:40:27.422Z,15.46
2022-09-09T04:41:27.421Z,15.49
2022-09-09T04:42:27.398Z,15.49
2022-09-09T04:43:27.389Z,15.50
2022-09-09T04:44:27.373Z,15.49
2022-09-09T04:45:27.400Z,15.57
2022-09-09T04:46:27.390Z,15.54
2022-09-09T04:47:27.341Z,15.41
2022-09-09T04:48:27.324Z,15.57
2022-09-09T04:49:27.323Z,15.47
2022-09-09T04:50:27.311Z,15.49
2022-09-09T04:51:27.325Z,15.47
2022-09-09T04:52:27.330Z,15.46
2022-09-09T04:53:27.283Z,15.59
2022-09-09T04:54:27.270Z,15.47
2022-09-09T04:55:27.266Z,15.57
2022-09-09T04:56:27.263Z,15.53
2022-09-09T04:57:27.264Z,15.54
2022-09-09T04:58:27.253Z,15.56
2022-09-09T04:59:27.227Z,15.59
2022-09-09T05:00:27.215Z,15.59
2022-09-09T05:01:27.327Z,15.62
2022-09-09T05:02:30.999Z,15.68
2022-09-09T05:03:28.181Z,15.62
2022-09-09T05:04:27.216Z,15.62
2022-09-09T05:05:27.155Z,15.60
2022-09-09T05:06:27.185Z,15.71
2022-09-09T05:07:27.133Z,15.62
2022-09-09T05:08:27.131Z,15.59
2022-09-09T05:09:27.126Z,15.71
2022-09-09T05:10:27.107Z,15.62
2022-09-09T05:11:27.120Z,15.68
2022-09-09T05:12:27.119Z,15.62
2022-09-09T05:13:27.080Z,15.65
2022-09-09T05:14:27.078Z,15.51
2022-09-09T05:15:27.059Z,15.49
2022-09-09T05:16:27.106Z,15.39
2022-09-09T05:17:27.080Z,15.43
2022-09-09T05:18:27.028Z,15.47
2022-09-09T05:19:27.024Z,15.50
2022-09-09T05:20:27.017Z,15.56
2022-09-09T05:21:27.014Z,15.47
2022-09-09T05:22:26.987Z,15.65
2022-09-09T05:23:27.004Z,15.60
2022-09-09T05:24:26.994Z,15.60
2022-09-09T05:25:26.994Z,15.54
2022-09-09T05:26:26.942Z,15.71
2022-09-09T05:27:26.941Z,15.64
2022-09-09T05:28:26.937Z,15.69
2022-09-09T05:29:26.958Z,15.72
2022-09-09T05:30:26.914Z,15.69
2022-09-09T05:31:27.302Z,15.68
2022-09-09T05:32:27.903Z,15.68
2022-09-09T05:33:26.913Z,15.65
2022-09-09T05:34:26.883Z,15.68
2022-09-09T05:35:26.866Z,15.67
2022-09-09T05:36:26.875Z,15.71
2022-09-09T05:37:26.846Z,15.74
2022-09-09T05:38:28.741Z,15.84
2022-09-09T05:39:27.824Z,15.92
2022-09-09T05:40:26.809Z,15.90
2022-09-09T05:41:26.821Z,15.92
2022-09-09T05:42:26.787Z,15.96
2022-09-09T05:43:26.793Z,15.90
2022-09-09T05:44:26.831Z,15.93
2022-09-09T05:45:26.763Z,15.97
2022-09-09T05:46:26.782Z,15.97
2022-09-09T05:47:26.763Z,15.96
2022-09-09T05:48:26.732Z,15.90
2022-09-09T05:49:26.742Z,15.94
2022-09-09T05:50:30.984Z,15.87
2022-09-09T05:51:27.705Z,15.89
2022-09-09T05:52:26.699Z,15.87
2022-09-09T05:53:26.680Z,15.89
2022-09-09T05:54:26.691Z,16.00
2022-09-09T05:55:26.674Z,15.92
2022-09-09T05:56:26.643Z,16.07
2022-09-09T05:57:26.636Z,16.17
2022-09-09T05:58:26.629Z,16.17
2022-09-09T05:59:26.652Z,16.25
2022-09-09T06:00:26.608Z,16.30
2022-09-09T06:01:26.607Z,16.46
2022-09-09T06:02:26.719Z,16.56
2022-09-09T06:03:26.574Z,16.71
2022-09-09T06:04:26.581Z,16.68
2022-09-09T06:05:26.555Z,16.60
2022-09-09T06:06:26.564Z,16.60
2022-09-09T06:07:26.558Z,16.61
2022-09-09T06:08:26.534Z,16.64
2022-09-09T06:09:26.527Z,16.79
2022-09-09T06:10:26.513Z,16.93
2022-09-09T06:11:26.520Z,17.33
2022-09-09T06:12:26.521Z,17.41
2022-09-09T06:13:26.488Z,17.48
2022-09-09T06:14:26.472Z,17.62
2022-09-09T06:15:26.469Z,17.75
2022-09-09T06:16:26.469Z,17.84
2022-09-09T06:17:26.437Z,18.30
2022-09-09T06:18:26.440Z,19.71
2022-09-09T06:19:26.454Z,20.72
2022-09-09T06:20:26.457Z,21.52
2022-09-09T06:21:26.404Z,22.49
2022-09-09T06:22:26.395Z,23.12
2022-09-09T06:23:26.403Z,23.80
2022-09-09T06:24:26.406Z,24.40
2022-09-09T06:25:26.370Z,25.18
2022-09-09T06:26:26.346Z,25.60
2022-09-09T06:27:26.340Z,25.80
2022-09-09T06:28:26.337Z,25.99
2022-09-09T06:29:26.343Z,25.85
2022-09-09T06:30:26.356Z,25.06
2022-09-09T06:31:30.019Z,24.31
2022-09-09T06:32:27.318Z,23.78
2022-09-09T06:33:26.318Z,23.13
2022-09-09T06:34:26.278Z,22.80
2022-09-09T06:35:26.274Z,22.60
2022-09-09T06:36:26.262Z,22.54
2022-09-09T06:37:26.229Z,22.86
2022-09-09T06:38:26.258Z,23.27
2022-09-09T06:39:26.222Z,23.17
2022-09-09T06:40:26.221Z,23.27
2022-09-09T06:41:26.196Z,23.51
2022-09-09T06:42:26.190Z,23.43
2022-09-09T06:43:26.211Z,22.90
2022-09-09T06:44:26.174Z,21.77
2022-09-09T06:45:26.167Z,21.03
2022-09-09T06:46:26.205Z,20.73
2022-09-09T06:47:26.134Z,20.28
2022-09-09T06:48:26.136Z,19.94
2022-09-09T06:49:26.146Z,19.81
2022-09-09T06:50:26.128Z,20.28
2022-09-09T06:51:26.091Z,20.50
2022-09-09T06:52:26.097Z,20.26
2022-09-09T06:53:26.098Z,20.13
2022-09-09T06:54:26.077Z,20.21
2022-09-09T06:55:26.069Z,20.24
2022-09-09T06:56:26.048Z,20.70
2022-09-09T06:57:36.814Z,20.52
2022-09-09T06:58:28.055Z,20.51
2022-09-09T06:59:26.042Z,21.07
2022-09-09T07:00:26.041Z,21.53
2022-09-09T07:01:26.003Z,21.98
2022-09-09T07:02:26.021Z,21.82
2022-09-09T07:03:25.979Z,21.69
2022-09-09T07:04:25.984Z,22.21
2022-09-09T07:05:25.968Z,23.33
2022-09-09T07:06:25.959Z,23.53
2022-09-09T07:07:25.962Z,23.70
2022-09-09T07:08:25.931Z,24.20
2022-09-09T07:09:25.927Z,25.02
2022-09-09T07:10:25.912Z,24.87
2022-09-09T07:11:25.909Z,23.91
2022-09-09T07:12:25.919Z,22.65
2022-09-09T07:13:25.894Z,21.62
2022-09-09T07:14:25.898Z,21.09
2022-09-09T07:15:25.869Z,20.99
2022-09-09T07:16:25.987Z,20.92
2022-09-09T07:17:25.842Z,20.61
2022-09-09T07:18:25.831Z,20.52
2022-09-09T07:19:25.873Z,20.17
2022-09-09T07:20:25.818Z,20.05
2022-09-09T07:21:25.795Z,20.01
2022-09-09T07:22:25.793Z,19.87
2022-09-09T07:23:25.777Z,19.81
2022-09-09T07:24:25.788Z,19.78
2022-09-09T07:25:25.781Z,19.78
2022-09-09T07:26:25.762Z,19.73
2022-09-09T07:27:25.736Z,19.68
2022-09-09T07:28:25.729Z,19.40
2022-09-09T07:29:25.724Z,19.33
2022-09-09T07:30:40.117Z,19.23
2022-09-09T07:31:25.772Z,19.22
2022-09-09T07:32:25.709Z,19.04
2022-09-09T07:33:25.684Z,18.92
2022-09-09T07:34:25.695Z,18.87
2022-09-09T07:35:25.666Z,18.70
2022-09-09T07:36:28.869Z,18.70
2022-09-09T07:37:26.653Z,18.67
2022-09-09T07:38:25.629Z,18.73
2022-09-09T07:39:25.627Z,18.70
2022-09-09T07:40:25.602Z,18.63
2022-09-09T07:41:25.596Z,18.73
2022-09-09T07:42:25.609Z,18.87
2022-09-09T07:43:25.579Z,19.26
2022-09-09T07:44:25.572Z,19.51
2022-09-09T07:45:25.580Z,20.14
2022-09-09T07:46:25.607Z,20.69
2022-09-09T07:47:25.548Z,20.66
2022-09-09T07:48:25.535Z,20.62
2022-09-09T07:49:30.982Z,20.61
2022-09-09T07:50:27.537Z,20.43
2022-09-09T07:51:25.501Z,20.28
2022-09-09T07:52:25.493Z,20.03
2022-09-09T07:53:25.560Z,19.80
2022-09-09T07:54:25.468Z,19.77
2022-09-09T07:55:25.461Z,19.65
2022-09-09T07:56:25.454Z,19.55
2022-09-09T07:57:25.448Z,19.56
2022-09-09T07:58:25.448Z,20.18
2022-09-09T07:59:25.421Z,20.35
2022-09-09T08:00:25.404Z,20.69
2022-09-09T08:01:25.438Z,20.57
2022-09-09T08:02:25.392Z,20.31
2022-09-09T08:03:25.402Z,20.36
2022-09-09T08:04:25.391Z,20.39
2022-09-09T08:05:25.380Z,20.41
2022-09-09T08:06:25.397Z,20.57
2022-09-09T08:07:25.368Z,20.72
2022-09-09T08:08:25.339Z,20.32
2022-09-09T08:09:25.387Z,20.23
2022-09-09T08:10:25.315Z,20.05
2022-09-09T08:11:25.302Z,19.94
2022-09-09T08:12:25.297Z,19.76
2022-09-09T08:13:25.281Z,19.87
2022-09-09T08:14:25.297Z,20.16
2022-09-09T08:15:25.256Z,20.73
2022-09-09T08:16:25.253Z,21.01
2022-09-09T08:17:25.242Z,21.16
2022-09-09T08:18:25.227Z,21.68
2022-09-09T08:19:25.233Z,21.62
2022-09-09T08:20:25.234Z,21.58
2022-09-09T08:21:25.203Z,21.52
2022-09-09T08:22:25.209Z,21.91
2022-09-09T08:23:25.179Z,22.37
2022-09-09T08:24:25.191Z,22.70
2022-09-09T08:25:25.178Z,22.68
2022-09-09T08:26:25.173Z,23.00
2022-09-09T08:27:25.153Z,23.04
2022-09-09T08:28:25.131Z,23.25
2022-09-09T08:29:25.121Z,23.51
2022-09-09T08:30:25.138Z,23.57
2022-09-09T08:32:25.088Z,23.84
2022-09-09T08:33:25.079Z,23.25
2022-09-09T08:34:25.067Z,23.15
2022-09-09T08:35:25.065Z,23.22
2022-09-09T08:36:25.052Z,23.78
2022-09-09T08:37:25.039Z,24.43
2022-09-09T08:38:25.027Z,24.77
2022-09-09T08:39:25.031Z,24.28
2022-09-09T08:40:25.003Z,23.50
2022-09-09T08:41:25.003Z,22.55
2022-09-09T08:42:24.997Z,22.09
2022-09-09T08:43:24.985Z,21.80
2022-09-09T08:44:25.007Z,21.67
2022-09-09T08:45:24.976Z,21.38
2022-09-09T08:46:25.017Z,21.06
2022-09-09T08:47:24.953Z,20.95
2022-09-09T08:48:24.940Z,20.88
2022-09-09T08:49:24.945Z,20.72
2022-09-09T08:50:24.932Z,20.69
2022-09-09T08:51:24.912Z,20.64
2022-09-09T08:52:24.916Z,20.50
2022-09-09T08:53:24.893Z,20.79
2022-09-09T08:54:48.293Z,20.67
2022-09-09T08:55:26.901Z,20.88
2022-09-09T08:56:24.877Z,21.01
2022-09-09T08:57:24.864Z,21.62
2022-09-09T08:58:24.836Z,21.69
2022-09-09T08:59:24.833Z,21.68
2022-09-09T09:00:24.829Z,22.06
2022-09-09T09:01:24.898Z,21.96
2022-09-09T09:02:24.797Z,21.69
2022-09-09T09:03:24.786Z,21.65
2022-09-09T09:04:24.801Z,21.52
2022-09-09T09:05:24.783Z,21.38
2022-09-09T09:06:24.796Z,21.32
2022-09-09T09:07:25.537Z,21.25
2022-09-09T09:08:24.748Z,21.22
2022-09-09T09:09:24.729Z,21.19
2022-09-09T09:10:41.176Z,21.07
2022-09-09T09:11:25.731Z,20.94
2022-09-09T09:12:24.784Z,20.76
2022-09-09T09:13:24.716Z,20.73
2022-09-09T09:14:24.785Z,20.76
2022-09-09T09:15:25.720Z,20.74
2022-09-09T09:16:24.662Z,20.80
2022-09-09T09:17:24.663Z,20.89
2022-09-09T09:18:24.661Z,20.77
2022-09-09T09:19:24.632Z,20.79
2022-09-09T09:20:24.621Z,20.76
2022-09-09T09:21:24.615Z,20.87
2022-09-09T09:22:24.728Z,20.85
2022-09-09T09:23:24.619Z,20.97
2022-09-09T09:24:24.601Z,21.03
2022-09-09T09:25:24.573Z,20.95
2022-09-09T09:26:24.615Z,21.27
2022-09-09T09:27:24.557Z,21.44
2022-09-09T09:28:24.537Z,21.53
2022-09-09T09:29:24.558Z,21.65
2022-09-09T09:30:29.877Z,21.67
2022-09-09T09:31:26.588Z,21.54
2022-09-09T09:32:24.565Z,21.80
2022-09-09T09:33:24.496Z,22.12
2022-09-09T09:34:24.511Z,22.20
2022-09-09T09:35:24.485Z,22.72
2022-09-09T09:36:24.476Z,22.76
2022-09-09T09:37:24.460Z,22.85
2022-09-09T09:40:25.426Z,22.91
2022-09-09T09:41:24.436Z,22.57
2022-09-09T09:42:24.403Z,22.21
2022-09-09T09:43:24.436Z,22.12
2022-09-09T09:44:24.386Z,22.36
2022-09-09T09:45:24.386Z,22.62
2022-09-09T09:46:24.778Z,22.72
2022-09-09T09:47:24.472Z,22.64
2022-09-09T09:48:24.357Z,22.40
2022-09-09T09:49:24.332Z,22.30
2022-09-09T09:50:24.382Z,22.18
2022-09-09T09:51:24.333Z,22.31
2022-09-09T09:52:24.313Z,22.42
2022-09-09T09:53:24.295Z,22.15
2022-09-09T09:54:24.279Z,21.91
2022-09-09T09:55:24.269Z,21.65
2022-09-09T09:56:24.278Z,21.49
2022-09-09T09:57:24.308Z,21.54
2022-09-09T09:58:24.259Z,21.61
2022-09-09T09:59:38.739Z,21.61
2022-09-09T10:00:24.238Z,21.67
2022-09-09T10:01:24.265Z,21.74
2022-09-09T10:02:24.220Z,22.00
2022-09-09T10:03:24.201Z,22.09
2022-09-09T10:04:24.233Z,21.91
2022-09-09T10:05:27.193Z,22.02
2022-09-09T10:06:25.147Z,21.94
2022-09-09T10:07:25.157Z,22.21
2022-09-09T10:08:24.138Z,21.94
2022-09-09T10:09:24.129Z,21.83
2022-09-09T10:10:24.136Z,21.80
2022-09-09T10:11:24.138Z,21.75
2022-09-09T10:12:24.125Z,21.82
2022-09-09T10:13:24.127Z,21.94
2022-09-09T10:14:24.088Z,22.03
2022-09-09T10:15:24.076Z,22.39
2022-09-09T10:16:24.132Z,22.54
2022-09-09T10:17:24.056Z,22.52
2022-09-09T10:18:24.048Z,22.45
2022-09-09T10:19:24.038Z,22.46
2022-09-09T10:20:24.044Z,22.45
2022-09-09T10:21:24.027Z,22.72
2022-09-09T10:22:24.005Z,22.86
2022-09-09T10:23:23.997Z,23.02
2022-09-09T10:24:24.040Z,23.12
2022-09-09T10:25:23.987Z,23.27
2022-09-09T10:26:23.957Z,23.39
2022-09-09T10:27:23.950Z,23.16
2022-09-09T10:28:23.935Z,23.16
2022-09-09T10:29:23.942Z,23.27
2022-09-09T10:30:23.913Z,23.07
2022-09-09T10:31:23.973Z,23.12
2022-09-09T10:32:23.903Z,23.22
2022-09-09T10:33:23.898Z,23.22
2022-09-09T10:34:25.706Z,23.02
2022-09-09T10:35:23.875Z,22.61
2022-09-09T10:36:23.861Z,22.51
2022-09-09T10:37:23.852Z,22.40
2022-09-09T10:38:23.858Z,22.15
2022-09-09T10:39:23.859Z,21.83
2022-09-09T10:40:23.893Z,21.69
2022-09-09T10:41:23.836Z,21.77
2022-09-09T10:42:23.807Z,21.71
2022-09-09T10:43:23.789Z,21.80
2022-09-09T10:44:23.790Z,21.75
2022-09-09T10:45:23.771Z,21.82
2022-09-09T10:46:23.888Z,21.62
2022-09-09T10:47:27.822Z,21.67
2022-09-09T10:48:24.749Z,21.52
2022-09-09T10:49:23.734Z,21.61
2022-09-09T10:50:28.163Z,21.54
2022-09-09T10:51:24.724Z,21.68
2022-09-09T10:52:23.729Z,21.71
2022-09-09T10:53:23.699Z,21.79
2022-09-09T10:54:23.732Z,21.90
2022-09-09T10:55:27.961Z,21.92
2022-09-09T10:56:25.672Z,21.68
2022-09-09T10:57:23.654Z,21.67
2022-09-09T10:58:23.643Z,21.50
2022-09-09T10:59:23.657Z,21.50
2022-09-09T11:00:23.627Z,21.46
2022-09-09T11:01:23.682Z,21.52
2022-09-09T11:02:23.615Z,21.56
2022-09-09T11:03:23.624Z,21.50
2022-09-09T11:04:23.628Z,21.54
2022-09-09T11:05:23.612Z,21.52
2022-09-09T11:06:23.604Z,21.54
2022-09-09T11:07:23.563Z,21.50
2022-09-09T11:09:24.543Z,21.68
2022-09-09T11:10:23.548Z,21.62
2022-09-09T11:11:23.512Z,21.53
2022-09-09T11:12:23.523Z,21.54
2022-09-09T11:13:23.509Z,21.43
2022-09-09T11:14:23.494Z,21.43
2022-09-09T11:15:23.593Z,21.40
2022-09-09T11:16:23.541Z,21.46
2022-09-09T11:17:23.464Z,21.46
2022-09-09T11:18:23.447Z,21.65
2022-09-09T11:19:23.470Z,21.77
2022-09-09T11:20:23.456Z,21.79
2022-09-09T11:21:23.453Z,21.82
2022-09-09T11:22:23.417Z,21.84
2022-09-09T11:23:23.391Z,21.69
2022-09-09T11:24:23.419Z,21.59
2022-09-09T11:25:23.373Z,21.65
2022-09-09T11:26:23.390Z,21.61
2022-09-09T11:27:23.361Z,21.62
2022-09-09T11:28:23.350Z,21.71
2022-09-09T11:29:23.340Z,21.58
2022-09-09T11:30:51.286Z,21.42
2022-09-09T11:31:25.370Z,21.59
2022-09-09T11:32:23.319Z,21.64
2022-09-09T11:33:23.299Z,21.90
2022-09-09T11:34:23.386Z,22.03
2022-09-09T11:35:23.271Z,22.09
2022-09-09T11:36:23.293Z,22.37
2022-09-09T11:37:23.256Z,22.61
2022-09-09T11:38:23.249Z,22.75
2022-09-09T11:39:23.245Z,22.70
2022-09-09T11:40:23.231Z,22.94
2022-09-09T11:41:23.241Z,23.07
2022-09-09T11:42:23.230Z,23.20
2022-09-09T11:43:23.199Z,23.38
2022-09-09T11:44:23.197Z,23.38
2022-09-09T11:45:23.190Z,23.42
2022-09-09T11:46:23.340Z,23.40
2022-09-09T11:47:23.185Z,23.36
2022-09-09T11:48:23.146Z,23.04
2022-09-09T11:49:23.136Z,22.86
2022-09-09T11:50:23.147Z,22.83
2022-09-09T11:51:23.142Z,22.72
2022-09-09T11:52:23.110Z,22.79
2022-09-09T11:53:23.127Z,22.85
2022-09-09T11:54:23.083Z,22.73
2022-09-09T11:55:23.087Z,23.07
2022-09-09T11:56:23.093Z,23.04
2022-09-09T11:57:23.065Z,23.20
2022-09-09T11:58:23.072Z,23.17
2022-09-09T11:59:23.043Z,23.12
2022-09-09T12:00:23.034Z,23.04
2022-09-09T12:01:23.040Z,23.09
2022-09-09T12:02:23.042Z,22.97
2022-09-09T12:03:22.997Z,22.88
2022-09-09T12:04:22.995Z,23.01
2022-09-09T12:05:23.061Z,22.94
2022-09-09T12:06:22.978Z,23.04
2022-09-09T12:07:22.976Z,23.20
2022-09-09T12:08:22.953Z,23.17
2022-09-09T12:09:22.945Z,23.31
2022-09-09T12:10:22.964Z,23.31
2022-09-09T12:11:22.924Z,23.38
2022-09-09T12:12:22.912Z,23.53
2022-09-09T12:13:22.904Z,23.50
2022-09-09T12:14:22.890Z,23.55
2022-09-09T12:15:22.900Z,23.50
2022-09-09T12:16:22.903Z,23.32
2022-09-09T12:17:22.858Z,23.33
2022-09-09T12:18:22.843Z,23.32
2022-09-09T12:19:26.246Z,23.17
2022-09-09T12:20:22.817Z,23.12
2022-09-09T12:21:22.830Z,23.23
2022-09-09T12:22:22.815Z,23.20
2022-09-09T12:23:22.802Z,23.36
2022-09-09T12:24:22.799Z,23.51
2022-09-09T12:25:23.448Z,23.72
2022-09-09T12:26:22.788Z,23.54
2022-09-09T12:27:22.757Z,23.55
2022-09-09T12:28:22.751Z,23.48
2022-09-09T12:29:22.826Z,23.46
2022-09-09T12:30:22.720Z,23.51
2022-09-09T12:31:22.722Z,23.63
2022-09-09T12:32:22.718Z,23.69
2022-09-09T12:33:22.718Z,23.50
2022-09-09T12:34:22.707Z,23.39
2022-09-09T12:35:22.674Z,23.02
2022-09-09T12:36:23.670Z,22.83
2022-09-09T12:37:22.668Z,22.75
2022-09-09T12:38:23.501Z,22.70
2022-09-09T12:39:22.640Z,22.72
2022-09-09T12:40:22.667Z,22.68
2022-09-09T12:41:22.640Z,22.60
2022-09-09T12:42:22.619Z,22.73
2022-09-09T12:43:22.596Z,22.79
2022-09-09T12:44:22.589Z,22.94
2022-09-09T12:45:22.597Z,23.19
2022-09-09T12:46:22.605Z,23.33
2022-09-09T12:47:25.098Z,23.46
2022-09-09T12:48:22.558Z,23.38
2022-09-09T12:49:22.548Z,23.43
2022-09-09T12:50:22.569Z,23.40
2022-09-09T12:51:22.516Z,23.40
2022-09-09T12:52:22.512Z,23.47
2022-09-09T12:53:26.156Z,23.46
2022-09-09T12:54:23.545Z,23.61
2022-09-09T12:55:22.505Z,23.61
2022-09-09T12:56:22.493Z,23.68